Terminal Aerodrome Forecast
Issued by NWS

Current Version | Previous Version | Text Only | Print | Product List | Glossary On
Versions: 1 2 3 4 5 6 7 8 9 10 11 12 13
000
FTUS44 KEWX 270700 AAB
TAFSSF
TAF AMD
KSSF 270745Z 2708/2806 14005KT 5SM BR OVC005
     FM271000 10004KT 2SM BR OVC003
     FM271400 35006KT 5SM -DZ BR OVC008
     FM271700 36010G17KT P6SM VCSH OVC015
     FM272200 36017G24KT P6SM OVC025
     FM280400 01013G20KT P6SM OVC025=

USA.gov is the U.S. government's official web portal to all federal, state and local government web resources and services.